createdAt,value
2019-02-10T00:00:38.670Z,76.80
2019-02-10T00:03:09.144Z,76.90
2019-02-10T00:05:40.804Z,76.90
2019-02-10T00:10:41.404Z,76.50
2019-02-10T00:15:59.955Z,76.20
2019-02-10T00:18:30.433Z,75.60
2019-02-10T00:28:33.101Z,75.90
2019-02-10T00:33:34.958Z,76.60
2019-02-10T00:36:05.310Z,76.90
2019-02-10T00:38:35.585Z,76.60
2019-02-10T00:43:35.474Z,75.70
2019-02-10T00:46:05.845Z,78.00
2019-02-10T00:51:06.754Z,76.30
2019-02-10T00:53:37.462Z,76.70
2019-02-10T00:56:07.881Z,76.10
2019-02-10T00:58:38.209Z,75.90
2019-02-10T01:06:08.053Z,76.60
2019-02-10T01:08:38.648Z,75.70
2019-02-10T01:18:38.243Z,76.50
2019-02-10T01:23:38.278Z,76.10
2019-02-10T01:26:08.946Z,76.80
2019-02-10T01:28:39.622Z,76.20
2019-02-10T01:31:10.115Z,77.30
2019-02-10T01:33:40.772Z,75.90
2019-02-10T01:36:11.847Z,75.90
2019-02-10T01:38:42.035Z,76.10
2019-02-10T01:43:42.460Z,77.40
2019-02-10T01:51:13.454Z,77.10
2019-02-10T02:23:42.961Z,77.80
2019-02-10T02:31:13.665Z,78.40
2019-02-10T02:36:13.578Z,78.50
2019-02-10T02:38:44.352Z,78.60
2019-02-10T02:43:44.596Z,78.40
2019-02-10T02:51:14.182Z,77.50
2019-02-10T02:53:44.963Z,77.70
2019-02-10T03:03:43.997Z,79.60
2019-02-10T03:08:44.252Z,80.60
2019-02-10T03:11:14.928Z,79.20
2019-02-10T03:13:45.156Z,79.00
2019-02-10T03:16:15.678Z,79.60
2019-02-10T03:18:53.003Z,80.10
2019-02-10T03:23:48.052Z,79.90
2019-02-10T03:31:17.788Z,80.50
2019-02-10T03:38:47.541Z,81.20
2019-02-10T03:53:47.597Z,79.90
2019-02-10T04:01:18.528Z,79.50
2019-02-10T04:06:18.711Z,79.80
2019-02-10T04:11:18.587Z,79.20
2019-02-10T04:23:47.433Z,79.20
2019-02-10T04:31:19.337Z,79.80
2019-02-10T04:33:49.606Z,78.80
2019-02-10T04:36:21.056Z,77.90
2019-02-10T04:38:51.510Z,77.30
2019-02-10T04:43:51.305Z,77.30
2019-02-10T04:46:21.747Z,78.20
2019-02-10T04:48:51.998Z,78.10
2019-02-10T04:51:22.296Z,76.50
2019-02-10T04:56:22.530Z,78.10
2019-02-10T05:03:53.384Z,78.80
2019-02-10T05:11:23.168Z,77.60
2019-02-10T05:18:52.931Z,77.50
2019-02-10T05:26:22.542Z,77.20
2019-02-10T05:33:52.538Z,78.80
2019-02-10T05:36:23.280Z,78.00
2019-02-10T05:43:53.173Z,78.30
2019-02-10T05:46:23.763Z,78.10
2019-02-10T05:51:25.532Z,78.30
2019-02-10T05:53:55.811Z,78.60
2019-02-10T05:58:56.110Z,77.60
2019-02-10T06:02:01.157Z,77.70
2019-02-10T06:04:33.119Z,78.00
2019-02-10T06:07:06.454Z,76.70
2019-02-10T06:09:37.132Z,78.80
2019-02-10T06:14:37.287Z,75.60
2019-02-10T06:17:07.589Z,74.90
2019-02-10T06:19:38.153Z,74.60
2019-02-10T06:24:38.028Z,73.80
2019-02-10T06:27:09.081Z,73.70
2019-02-10T06:34:38.852Z,73.00
2019-02-10T06:37:09.162Z,72.80
2019-02-10T06:42:10.332Z,72.10
2019-02-10T06:47:11.296Z,73.60
2019-02-10T06:49:42.107Z,72.50
2019-02-10T06:57:29.560Z,73.00
2019-02-10T07:00:19.891Z,73.10
2019-02-10T07:19:06.232Z,74.30
2019-02-10T07:21:39.982Z,74.20
2019-02-10T07:30:37.865Z,74.80
2019-02-10T07:33:23.245Z,75.70
2019-02-10T07:36:24.212Z,75.50
2019-02-10T07:42:29.967Z,74.60
2019-02-10T07:59:30.495Z,70.50
2019-02-10T08:08:05.091Z,69.60
2019-02-10T08:16:52.085Z,68.00
2019-02-10T08:22:41.011Z,66.70
2019-02-10T08:28:23.044Z,66.60
2019-02-10T08:34:01.779Z,67.60
2019-02-10T08:48:35.039Z,65.90
2019-02-10T08:56:37.659Z,65.40
2019-02-10T09:04:08.209Z,65.70
2019-02-10T09:31:42.975Z,58.90
2019-02-10T09:39:13.183Z,58.30
2019-02-10T09:41:44.031Z,57.60
2019-02-10T09:49:14.691Z,57.30
2019-02-10T09:59:17.178Z,58.50
2019-02-10T10:01:48.499Z,56.20
2019-02-10T10:04:18.850Z,58.30
2019-02-10T10:06:49.526Z,57.30
2019-02-10T10:11:50.314Z,56.30
2019-02-10T10:34:21.419Z,58.40
2019-02-10T10:39:27.164Z,58.70
2019-02-10T10:41:57.383Z,58.00
2019-02-10T10:46:58.118Z,57.70
2019-02-10T10:49:28.907Z,57.80
2019-02-10T10:56:59.264Z,55.10
2019-02-10T11:02:00.772Z,56.70
2019-02-10T11:04:31.063Z,55.30
2019-02-10T11:09:35.606Z,54.30
2019-02-10T11:12:04.693Z,54.30
2019-02-10T11:14:35.180Z,53.80
2019-02-10T11:19:41.099Z,54.40
2019-02-10T11:24:44.628Z,52.70
2019-02-10T11:29:45.093Z,51.70
2019-02-10T11:32:15.919Z,51.30
2019-02-10T11:34:46.473Z,51.00
2019-02-10T11:37:16.888Z,50.60
2019-02-10T11:39:47.227Z,50.20
2019-02-10T11:44:47.970Z,50.20
2019-02-10T11:57:20.626Z,47.60
2019-02-10T11:59:51.044Z,49.00
2019-02-10T12:02:21.375Z,47.90
2019-02-10T12:07:24.147Z,47.70
2019-02-10T12:17:25.704Z,48.50
2019-02-10T12:22:26.521Z,48.60
2019-02-10T12:29:57.444Z,48.60
2019-02-10T12:32:28.038Z,49.40
2019-02-10T12:45:01.561Z,48.70
2019-02-10T12:50:03.274Z,49.40
2019-02-10T13:00:04.573Z,46.40
2019-02-10T13:02:35.097Z,46.50
2019-02-10T13:15:12.112Z,46.50
2019-02-10T13:17:44.424Z,46.80
2019-02-10T13:22:46.004Z,47.30
2019-02-10T13:30:21.205Z,48.00
2019-02-10T13:35:21.449Z,48.40
2019-02-10T13:37:52.683Z,48.40
2019-02-10T13:40:23.962Z,49.20
2019-02-10T13:42:54.974Z,48.60
2019-02-10T13:55:30.605Z,49.10
2019-02-10T14:00:31.138Z,49.40
2019-02-10T14:05:31.285Z,50.40
2019-02-10T14:10:34.171Z,50.00
2019-02-10T14:18:05.605Z,51.30
2019-02-10T14:20:36.230Z,52.10
2019-02-10T14:23:08.063Z,50.90
2019-02-10T14:25:40.765Z,51.20
2019-02-10T14:30:45.915Z,50.70
2019-02-10T14:33:16.310Z,50.40
2019-02-10T14:40:46.881Z,50.70
2019-02-10T14:43:17.140Z,49.90
2019-02-10T14:45:47.884Z,50.50
2019-02-10T14:48:18.623Z,50.80
2019-02-10T14:50:48.972Z,50.40
2019-02-10T14:55:49.369Z,50.50
2019-02-10T15:00:50.167Z,50.20
2019-02-10T15:03:20.482Z,51.10
2019-02-10T15:05:51.015Z,52.00
2019-02-10T15:08:21.302Z,51.80
2019-02-10T15:13:22.514Z,51.20
2019-02-10T15:20:52.562Z,51.70
2019-02-10T15:23:23.111Z,51.10
2019-02-10T15:25:53.477Z,51.60
2019-02-10T15:30:53.460Z,51.30
2019-02-10T15:33:23.732Z,52.50
2019-02-10T15:35:54.722Z,53.10
2019-02-10T15:38:26.885Z,53.70
2019-02-10T15:40:59.999Z,54.40
2019-02-10T15:43:30.969Z,55.10
2019-02-10T15:46:02.181Z,55.20
2019-02-10T15:58:35.974Z,60.00
2019-02-10T16:13:38.517Z,72.50
2019-02-10T16:16:08.947Z,74.70
2019-02-10T16:23:42.206Z,78.60
2019-02-10T16:26:13.188Z,82.20
2019-02-10T16:31:15.511Z,82.40
2019-02-10T16:33:50.752Z,82.80
2019-02-10T16:38:51.349Z,84.10
2019-02-10T16:43:55.902Z,85.90
2019-02-10T16:46:26.303Z,85.60
2019-02-10T16:51:26.468Z,85.10
2019-02-10T16:54:04.240Z,84.70
2019-02-10T16:56:34.999Z,84.60
2019-02-10T17:01:38.229Z,85.30
2019-02-10T17:04:08.562Z,84.90
2019-02-10T17:06:39.403Z,84.00
2019-02-10T17:16:40.844Z,82.50
2019-02-10T17:19:11.284Z,82.00
2019-02-10T17:26:42.485Z,81.50
2019-02-10T17:29:13.134Z,83.80
2019-02-10T17:39:16.658Z,81.60
2019-02-10T17:41:48.530Z,81.40
2019-02-10T17:51:48.526Z,80.20
2019-02-10T17:54:19.022Z,79.60
2019-02-10T17:56:49.491Z,79.30
2019-02-10T18:01:49.413Z,79.10
2019-02-10T18:04:19.800Z,79.00
2019-02-10T18:06:50.173Z,78.50
2019-02-10T18:14:48.600Z,77.00
2019-02-10T18:17:37.171Z,76.10
2019-02-10T18:20:20.308Z,76.40
2019-02-10T18:25:44.872Z,75.50
2019-02-10T18:34:29.552Z,73.80
2019-02-10T18:40:03.009Z,73.60
2019-02-10T18:48:33.058Z,70.50
2019-02-10T18:51:13.240Z,71.00
2019-02-10T19:05:44.100Z,65.30
2019-02-10T19:13:48.071Z,67.40
2019-02-10T19:22:42.736Z,63.70
2019-02-10T19:25:26.000Z,66.20
2019-02-10T19:39:18.125Z,64.00
2019-02-10T19:56:45.538Z,64.30
2019-02-10T20:08:03.044Z,66.80
2019-02-10T20:10:52.328Z,66.90
2019-02-10T20:19:15.863Z,67.90
2019-02-10T20:22:07.701Z,67.10
2019-02-10T20:41:28.569Z,76.30
2019-02-10T20:44:33.294Z,77.60
2019-02-10T20:50:06.547Z,79.50
2019-02-10T20:52:52.759Z,79.10
2019-02-10T21:01:09.700Z,80.50
2019-02-10T21:06:49.639Z,80.80
2019-02-10T21:15:16.108Z,81.40
2019-02-10T21:18:03.685Z,81.40
2019-02-10T21:34:46.660Z,81.90
2019-02-10T21:40:03.532Z,81.10
2019-02-10T21:46:03.857Z,80.70
2019-02-10T21:48:37.882Z,80.50
2019-02-10T21:53:38.441Z,80.20
2019-02-10T21:58:38.896Z,80.50
2019-02-10T22:03:39.298Z,79.90
2019-02-10T22:06:12.409Z,80.80
2019-02-10T22:18:43.448Z,80.10
2019-02-10T22:28:43.310Z,80.20
2019-02-10T22:33:51.399Z,81.80
2019-02-10T22:36:17.543Z,82.20
2019-02-10T22:38:48.707Z,82.90
2019-02-10T22:48:49.283Z,83.00
2019-02-10T22:51:19.664Z,81.50
2019-02-10T23:08:50.324Z,87.40
2019-02-10T23:18:52.955Z,86.70
2019-02-10T23:26:23.828Z,86.90
2019-02-10T23:28:55.603Z,86.90
2019-02-10T23:31:25.847Z,86.90
2019-02-10T23:33:56.400Z,87.10
2019-02-10T23:38:58.656Z,86.30
2019-02-10T23:43:59.139Z,86.10
2019-02-10T23:46:29.461Z,86.00
2019-02-10T23:51:30.317Z,85.40
